createdAt,value
2022-08-05T00:01:36.328Z,43.49
2022-08-05T00:04:17.053Z,43.47
2022-08-05T00:06:47.051Z,43.41
2022-08-05T00:09:19.583Z,43.51
2022-08-05T00:11:59.657Z,43.57
2022-08-05T00:14:31.333Z,43.66
2022-08-05T00:17:01.737Z,43.67
2022-08-05T00:19:33.362Z,43.64
2022-08-05T00:22:02.539Z,43.67
2022-08-05T00:24:31.537Z,43.97
2022-08-05T00:27:04.729Z,44.04
2022-08-05T00:29:42.044Z,44.18
2022-08-05T00:32:15.038Z,44.32
2022-08-05T00:35:03.291Z,44.32
2022-08-05T00:37:50.420Z,44.22
2022-08-05T00:40:26.931Z,44.36
2022-08-05T00:42:59.322Z,44.63
2022-08-05T00:45:42.921Z,44.56
2022-08-05T00:48:13.636Z,44.39
2022-08-05T00:50:46.131Z,44.54
2022-08-05T00:53:59.974Z,44.37
2022-08-05T00:56:04.699Z,44.63
2022-08-05T00:58:34.401Z,44.49
2022-08-05T01:01:02.631Z,44.49
2022-08-05T01:03:37.237Z,44.54
2022-08-05T01:06:05.939Z,44.49
2022-08-05T01:08:44.669Z,44.50
2022-08-05T01:11:21.946Z,44.63
2022-08-05T01:14:01.472Z,44.71
2022-08-05T01:16:35.339Z,44.64
2022-08-05T01:19:14.337Z,44.86
2022-08-05T01:22:18.862Z,44.96
2022-08-05T01:25:39.580Z,44.82
2022-08-05T01:28:27.543Z,44.90
2022-08-05T01:31:00.872Z,44.86
2022-08-05T01:33:36.638Z,45.17
2022-08-05T01:36:13.206Z,44.85
2022-08-05T01:38:48.501Z,44.76
2022-08-05T01:41:22.039Z,44.75
2022-08-05T01:43:53.603Z,44.52
2022-08-05T01:46:42.313Z,44.63
2022-08-05T01:49:23.777Z,44.46
2022-08-05T01:51:58.292Z,44.49
2022-08-05T01:54:31.351Z,44.47
2022-08-05T01:58:11.158Z,44.55
2022-08-05T01:59:53.932Z,44.49
2022-08-05T02:02:26.007Z,44.50
2022-08-05T02:04:58.202Z,44.67
2022-08-05T02:07:30.395Z,44.50
2022-08-05T02:09:59.416Z,44.39
2022-08-05T02:12:34.605Z,44.56
2022-08-05T02:15:12.374Z,44.35
2022-08-05T02:18:33.038Z,44.63
2022-08-05T02:20:47.587Z,44.32
2022-08-05T02:23:22.457Z,44.40
2022-08-05T02:25:52.605Z,44.36
2022-08-05T02:28:28.889Z,44.34
2022-08-05T02:31:07.844Z,44.18
2022-08-05T02:33:48.671Z,44.18
2022-08-05T02:36:31.634Z,44.41
2022-08-05T02:39:03.125Z,44.11
2022-08-05T02:41:42.855Z,44.17
2022-08-05T02:44:26.038Z,44.57
2022-08-05T02:47:00.966Z,44.64
2022-08-05T02:49:36.915Z,44.95
2022-08-05T02:52:09.533Z,45.20
2022-08-05T02:54:42.705Z,45.28
2022-08-05T02:58:10.839Z,45.32
2022-08-05T03:00:12.963Z,45.44
2022-08-05T03:02:45.191Z,45.08
2022-08-05T03:05:15.218Z,45.09
2022-08-05T03:08:06.594Z,45.31
2022-08-05T03:10:32.991Z,45.52
2022-08-05T03:15:29.089Z,45.96
2022-08-05T03:18:00.135Z,45.91
2022-08-05T03:20:28.323Z,46.22
2022-08-05T03:22:58.137Z,46.06
2022-08-05T03:25:33.974Z,46.46
2022-08-05T03:28:18.814Z,46.50
2022-08-05T03:30:50.809Z,46.72
2022-08-05T03:33:21.008Z,46.68
2022-08-05T03:35:51.696Z,46.88
2022-08-05T03:38:32.816Z,46.74
2022-08-05T03:41:08.468Z,46.70
2022-08-05T03:44:09.535Z,46.90
2022-08-05T03:46:29.980Z,47.31
2022-08-05T03:49:02.363Z,47.57
2022-08-05T03:52:37.482Z,47.85
2022-08-05T03:55:54.776Z,47.77
2022-08-05T03:57:41.520Z,48.16
2022-08-05T04:00:15.867Z,48.24
2022-08-05T04:02:57.607Z,48.44
2022-08-05T04:05:33.233Z,48.78
2022-08-05T04:08:05.628Z,49.16
2022-08-05T04:10:38.179Z,49.37
2022-08-05T04:13:08.458Z,49.35
2022-08-05T04:15:36.900Z,49.51
2022-08-05T04:18:07.923Z,49.60
2022-08-05T04:20:41.160Z,49.83
2022-08-05T04:23:12.251Z,49.32
2022-08-05T04:25:57.047Z,49.10
2022-08-05T04:28:30.849Z,49.06
2022-08-05T04:31:00.892Z,49.00
2022-08-05T04:33:54.525Z,48.66
2022-08-05T04:36:46.272Z,48.89
2022-08-05T04:39:08.562Z,48.70
2022-08-05T04:41:37.863Z,48.67
2022-08-05T04:44:09.593Z,48.71
2022-08-05T04:46:38.819Z,48.72
2022-08-05T04:49:12.145Z,48.68
2022-08-05T04:51:45.928Z,48.73
2022-08-05T04:54:15.658Z,48.73
2022-08-05T04:56:44.219Z,48.89
2022-08-05T04:59:17.439Z,48.67
2022-08-05T05:02:35.240Z,48.83
2022-08-05T05:04:43.990Z,49.12
2022-08-05T05:07:17.368Z,49.28
2022-08-05T05:09:46.181Z,49.01
2022-08-05T05:12:14.855Z,49.07
2022-08-05T05:14:50.619Z,49.01
2022-08-05T05:17:23.693Z,48.73
2022-08-05T05:19:56.469Z,48.88
2022-08-05T05:22:27.055Z,48.78
2022-08-05T05:24:59.025Z,48.85
2022-08-05T05:27:44.309Z,48.76
2022-08-05T05:30:31.558Z,48.78
2022-08-05T05:33:09.134Z,48.85
2022-08-05T05:35:45.332Z,48.85
2022-08-05T05:38:22.834Z,48.51
2022-08-05T05:40:55.944Z,48.70
2022-08-05T05:43:54.841Z,48.67
2022-08-05T05:46:17.246Z,48.78
2022-08-05T05:48:49.691Z,48.63
2022-08-05T05:51:22.877Z,48.74
2022-08-05T05:53:58.942Z,49.07
2022-08-05T05:56:33.210Z,49.00
2022-08-05T05:59:05.494Z,48.98
2022-08-05T06:01:38.131Z,48.94
2022-08-05T06:04:12.232Z,48.71
2022-08-05T06:06:43.068Z,48.46
2022-08-05T06:09:17.407Z,48.96
2022-08-05T06:12:02.080Z,49.09
2022-08-05T06:14:31.451Z,48.90
2022-08-05T06:17:02.220Z,49.16
2022-08-05T06:19:56.958Z,49.04
2022-08-05T06:22:30.053Z,48.89
2022-08-05T06:25:00.173Z,48.90
2022-08-05T06:28:11.847Z,48.95
2022-08-05T06:30:19.921Z,48.69
2022-08-05T06:32:50.702Z,48.54
2022-08-05T06:36:03.702Z,48.33
2022-08-05T06:38:11.636Z,48.21
2022-08-05T06:40:44.776Z,48.15
2022-08-05T06:43:57.956Z,47.76
2022-08-05T06:46:04.008Z,47.75
2022-08-05T06:48:56.199Z,47.40
2022-08-05T06:51:29.937Z,47.54
2022-08-05T06:53:59.573Z,47.21
2022-08-05T06:56:35.508Z,46.87
2022-08-05T06:59:09.346Z,46.43
2022-08-05T07:01:40.535Z,46.43
2022-08-05T07:04:13.928Z,46.29
2022-08-05T07:06:42.666Z,46.02
2022-08-05T07:09:11.164Z,45.93
2022-08-05T07:11:42.517Z,46.02
2022-08-05T07:14:36.863Z,45.75
2022-08-05T07:18:08.755Z,45.55
2022-08-05T07:22:52.177Z,45.63
2022-08-05T07:25:54.728Z,45.28
2022-08-05T07:28:17.272Z,45.18
2022-08-05T07:31:01.150Z,45.00
2022-08-05T07:33:38.670Z,44.93
2022-08-05T07:36:19.862Z,45.28
2022-08-05T07:38:54.866Z,44.81
2022-08-05T07:42:09.287Z,44.57
2022-08-05T07:44:28.538Z,44.88
2022-08-05T07:46:57.740Z,44.96
2022-08-05T07:49:27.293Z,44.88
2022-08-05T07:52:01.083Z,44.10
2022-08-05T07:54:41.297Z,44.18
2022-08-05T07:57:41.491Z,44.65
2022-08-05T08:00:26.942Z,44.06
2022-08-05T08:03:14.907Z,43.76
2022-08-05T08:06:03.297Z,43.28
2022-08-05T08:08:47.669Z,42.58
2022-08-05T08:11:27.590Z,43.23
2022-08-05T08:14:11.503Z,42.72
2022-08-05T08:16:51.197Z,42.24
2022-08-05T08:20:21.965Z,42.26
2022-08-05T08:27:59.822Z,42.12
2022-08-05T08:30:37.634Z,41.62
2022-08-05T08:33:13.939Z,42.30
2022-08-05T08:38:59.310Z,42.80
2022-08-05T08:41:52.144Z,42.42
2022-08-05T08:48:07.621Z,42.46
2022-08-05T08:53:22.078Z,41.81
2022-08-05T08:58:44.527Z,42.02
2022-08-05T09:01:18.009Z,41.78
2022-08-05T09:03:55.060Z,41.79
2022-08-05T09:06:30.281Z,41.74
2022-08-05T09:09:05.083Z,42.46
2022-08-05T09:11:52.686Z,42.60
2022-08-05T09:14:56.432Z,42.95
2022-08-05T09:17:42.969Z,43.15
2022-08-05T09:20:38.374Z,43.12
2022-08-05T09:23:28.768Z,42.92
2022-08-05T09:26:30.110Z,42.78
2022-08-05T09:29:08.812Z,42.75
2022-08-05T09:35:12.538Z,42.43
2022-08-05T09:38:12.563Z,41.55
2022-08-05T09:41:05.394Z,42.20
2022-08-05T09:44:06.822Z,42.44
2022-08-05T09:46:38.309Z,41.13
2022-08-05T09:49:54.593Z,40.84
2022-08-05T09:52:26.380Z,41.07
2022-08-05T09:54:57.992Z,41.60
2022-08-05T09:57:43.311Z,41.88
2022-08-05T10:00:17.686Z,41.84
2022-08-05T10:03:03.728Z,40.76
2022-08-05T10:05:42.410Z,40.24
2022-08-05T10:11:18.996Z,40.52
2022-08-05T10:13:56.617Z,40.72
2022-08-05T10:16:37.781Z,40.51
2022-08-05T10:19:13.962Z,41.19
2022-08-05T10:21:49.780Z,41.40
2022-08-05T10:27:09.886Z,41.09
2022-08-05T10:30:41.968Z,41.00
2022-08-05T10:32:51.792Z,40.95
2022-08-05T10:35:40.432Z,40.73
2022-08-05T10:38:33.191Z,40.60
2022-08-05T10:41:23.325Z,40.93
2022-08-05T10:43:59.649Z,41.05
2022-08-05T10:46:50.619Z,40.95
2022-08-05T10:49:49.153Z,41.36
2022-08-05T10:52:49.815Z,41.35
2022-08-05T10:55:22.284Z,41.26
2022-08-05T10:58:22.681Z,40.99
2022-08-05T11:01:08.228Z,41.22
2022-08-05T11:09:45.245Z,40.90
2022-08-05T11:12:50.867Z,41.01
2022-08-05T11:16:00.381Z,40.88
2022-08-05T11:18:30.003Z,40.79
2022-08-05T11:21:06.207Z,40.55
2022-08-05T11:24:04.264Z,40.33
2022-08-05T11:26:49.694Z,40.45
2022-08-05T11:30:15.667Z,40.33
2022-08-05T11:32:44.270Z,40.26
2022-08-05T11:36:07.644Z,40.24
2022-08-05T11:39:32.827Z,40.21
2022-08-05T11:42:08.859Z,40.12
2022-08-05T11:44:41.271Z,40.21
2022-08-05T11:47:48.887Z,40.50
2022-08-05T11:50:23.535Z,39.81
2022-08-05T11:52:59.289Z,39.60
2022-08-05T11:55:36.240Z,39.21
2022-08-05T11:58:35.632Z,39.97
2022-08-05T12:03:56.423Z,39.90
2022-08-05T12:06:30.121Z,39.93
2022-08-05T12:09:00.414Z,39.56
2022-08-05T12:11:40.498Z,39.01
2022-08-05T12:14:37.761Z,39.51
2022-08-05T12:18:00.588Z,39.15
2022-08-05T12:20:26.136Z,38.97
2022-08-05T12:22:49.388Z,39.10
2022-08-05T12:25:20.453Z,39.73
2022-08-05T12:27:54.005Z,39.80
2022-08-05T12:30:29.109Z,39.76
2022-08-05T12:33:06.879Z,39.04
2022-08-05T12:36:08.015Z,38.69
2022-08-05T12:38:41.334Z,37.95
2022-08-05T12:41:17.452Z,38.04
2022-08-05T12:44:05.260Z,38.07
2022-08-05T12:46:48.128Z,37.41
2022-08-05T12:49:25.568Z,38.44
2022-08-05T12:52:13.620Z,38.72
2022-08-05T12:55:10.100Z,38.44
2022-08-05T12:58:38.203Z,37.74
2022-08-05T13:02:00.256Z,38.04
2022-08-05T13:03:41.915Z,38.03
2022-08-05T13:07:17.703Z,38.29
2022-08-05T13:10:12.564Z,37.61
2022-08-05T13:12:57.587Z,37.97
2022-08-05T13:15:42.145Z,37.84
2022-08-05T13:25:19.397Z,36.42
2022-08-05T13:27:53.430Z,36.29
2022-08-05T13:30:35.632Z,34.77
2022-08-05T13:33:14.291Z,34.45
2022-08-05T13:36:05.153Z,34.79
2022-08-05T13:38:42.099Z,34.83
2022-08-05T13:41:13.643Z,35.19
2022-08-05T13:43:54.730Z,34.71
2022-08-05T13:47:04.513Z,35.29
2022-08-05T13:52:30.037Z,34.17
2022-08-05T13:55:07.524Z,34.09
2022-08-05T13:57:52.294Z,33.11
2022-08-05T14:00:41.664Z,33.46
2022-08-05T14:03:14.941Z,34.29
2022-08-05T14:06:04.774Z,32.78
2022-08-05T14:08:33.899Z,32.64
2022-08-05T14:11:20.435Z,32.37
2022-08-05T14:13:54.930Z,31.89
2022-08-05T14:16:26.140Z,30.96
2022-08-05T14:18:55.431Z,30.80
2022-08-05T14:22:09.557Z,30.86
2022-08-05T14:24:20.962Z,31.35
2022-08-05T14:27:15.519Z,31.76
2022-08-05T14:29:42.623Z,31.71
2022-08-05T14:32:26.953Z,31.63
2022-08-05T14:34:56.956Z,30.71
2022-08-05T14:37:42.186Z,31.00
2022-08-05T14:40:16.858Z,30.19
2022-08-05T14:42:55.272Z,29.77
2022-08-05T14:45:26.991Z,29.75
2022-08-05T14:48:03.574Z,29.23
2022-08-05T14:50:39.816Z,29.58
2022-08-05T14:53:19.365Z,29.12
2022-08-05T14:55:52.538Z,29.45
2022-08-05T15:01:06.697Z,29.25
2022-08-05T15:03:45.317Z,28.43
2022-08-05T15:06:15.477Z,28.63
2022-08-05T15:09:01.210Z,28.05
2022-08-05T15:11:50.978Z,27.95
2022-08-05T15:14:34.768Z,27.39
2022-08-05T15:17:44.433Z,26.79
2022-08-05T15:20:09.764Z,27.72
2022-08-05T15:22:45.784Z,27.79
2022-08-05T15:25:51.915Z,27.94
2022-08-05T15:28:19.283Z,28.09
2022-08-05T15:30:53.084Z,27.66
2022-08-05T15:34:05.813Z,26.72
2022-08-05T15:36:30.565Z,27.43
2022-08-05T15:40:41.570Z,27.40
2022-08-05T15:41:57.777Z,26.94
2022-08-05T15:47:28.785Z,26.50
2022-08-05T15:50:00.588Z,26.34
2022-08-05T15:52:53.226Z,26.20
2022-08-05T15:56:03.972Z,27.32
2022-08-05T15:58:39.463Z,26.82
2022-08-05T16:04:10.998Z,26.34
2022-08-05T16:06:41.611Z,26.11
2022-08-05T16:09:10.326Z,26.76
2022-08-05T16:11:43.584Z,26.67
2022-08-05T16:14:17.397Z,26.75
2022-08-05T16:16:51.585Z,26.10
2022-08-05T16:20:04.584Z,25.65
2022-08-05T16:22:37.785Z,26.20
2022-08-05T16:25:15.696Z,26.30
2022-08-05T16:27:47.295Z,25.48
2022-08-05T16:30:32.574Z,25.42
2022-08-05T16:33:02.058Z,26.30
2022-08-05T16:35:42.963Z,25.83
2022-08-05T16:38:24.279Z,26.44
2022-08-05T16:41:00.578Z,26.78
2022-08-05T16:43:33.211Z,27.04
2022-08-05T16:46:23.774Z,26.77
2022-08-05T16:48:55.531Z,27.31
2022-08-05T16:51:30.837Z,27.44
2022-08-05T16:54:17.481Z,27.50
2022-08-05T16:56:51.891Z,27.65
2022-08-05T16:59:22.307Z,27.44
2022-08-05T17:01:54.454Z,27.74
2022-08-05T17:04:26.375Z,27.52
2022-08-05T17:07:00.472Z,26.97
2022-08-05T17:12:12.492Z,25.15
2022-08-05T17:14:46.246Z,25.68
2022-08-05T17:17:16.247Z,25.72
2022-08-05T17:19:55.408Z,26.06
2022-08-05T17:22:27.291Z,26.70
2022-08-05T17:25:00.161Z,26.68
2022-08-05T17:27:45.181Z,26.03
2022-08-05T17:30:19.269Z,26.16
2022-08-05T17:32:59.185Z,26.45
2022-08-05T17:35:32.575Z,27.79
2022-08-05T17:38:18.338Z,28.23
2022-08-05T17:40:48.798Z,28.78
2022-08-05T17:43:17.841Z,29.28
2022-08-05T17:46:06.349Z,29.38
2022-08-05T17:48:39.163Z,30.10
2022-08-05T17:51:09.248Z,29.44
2022-08-05T17:53:39.291Z,29.35
2022-08-05T17:56:09.708Z,29.48
2022-08-05T17:58:39.861Z,29.52
2022-08-05T18:01:10.466Z,29.38
2022-08-05T18:03:59.369Z,30.36
2022-08-05T18:06:32.522Z,30.70
2022-08-05T18:09:04.027Z,31.48
2022-08-05T18:18:00.523Z,30.40
2022-08-05T18:20:14.104Z,30.21
2022-08-05T18:22:54.686Z,30.85
2022-08-05T18:25:33.058Z,31.88
2022-08-05T18:28:04.930Z,33.02
2022-08-05T18:30:34.041Z,33.95
2022-08-05T18:33:03.099Z,34.78
2022-08-05T18:36:00.696Z,35.39
2022-08-05T18:38:25.806Z,36.14
2022-08-05T18:41:55.879Z,36.80
2022-08-05T18:43:49.079Z,37.32
2022-08-05T18:46:20.194Z,37.93
2022-08-05T18:48:52.153Z,38.06
2022-08-05T18:52:04.747Z,38.72
2022-08-05T18:54:28.402Z,39.07
2022-08-05T18:57:01.154Z,39.36
2022-08-05T18:59:42.840Z,39.94
2022-08-05T19:02:27.985Z,40.33
2022-08-05T19:05:02.656Z,40.99
2022-08-05T19:07:48.091Z,41.23
2022-08-05T19:10:16.613Z,41.39
2022-08-05T19:12:48.438Z,41.92
2022-08-05T19:15:57.935Z,42.40
2022-08-05T19:18:10.247Z,42.56
2022-08-05T19:20:47.510Z,42.81
2022-08-05T19:24:04.235Z,43.14
2022-08-05T19:26:04.522Z,43.29
2022-08-05T19:28:41.461Z,43.42
2022-08-05T19:31:13.314Z,43.70
2022-08-05T19:33:48.350Z,44.02
2022-08-05T19:36:27.069Z,44.28
2022-08-05T19:39:01.384Z,44.59
2022-08-05T19:41:58.434Z,44.64
2022-08-05T19:44:20.668Z,45.08
2022-08-05T19:46:50.286Z,44.52
2022-08-05T19:49:19.465Z,45.26
2022-08-05T19:52:09.101Z,45.18
2022-08-05T19:54:39.949Z,45.35
2022-08-05T19:57:10.225Z,45.59
2022-08-05T19:59:56.132Z,45.52
2022-08-05T20:02:32.367Z,45.57
2022-08-05T20:05:00.733Z,45.63
2022-08-05T20:07:48.260Z,45.63
2022-08-05T20:10:19.437Z,45.78
2022-08-05T20:12:51.738Z,45.81
2022-08-05T20:15:48.678Z,45.63
2022-08-05T20:18:33.253Z,45.76
2022-08-05T20:20:59.857Z,45.85
2022-08-05T20:23:39.294Z,45.81
2022-08-05T20:26:18.656Z,46.30
2022-08-05T20:28:48.823Z,46.11
2022-08-05T20:31:21.899Z,46.15
2022-08-05T20:33:57.645Z,45.99
2022-08-05T20:36:25.983Z,45.97
2022-08-05T20:38:57.817Z,45.72
2022-08-05T20:41:43.277Z,45.79
2022-08-05T20:44:17.662Z,45.29
2022-08-05T20:46:49.506Z,45.30
2022-08-05T20:49:24.079Z,45.09
2022-08-05T20:51:54.195Z,44.57
2022-08-05T20:54:22.961Z,44.51
2022-08-05T20:56:53.290Z,44.17
2022-08-05T20:59:26.421Z,43.93
2022-08-05T21:01:58.154Z,44.00
2022-08-05T21:04:27.286Z,43.82
2022-08-05T21:06:55.972Z,43.44
2022-08-05T21:09:24.452Z,43.45
2022-08-05T21:12:10.695Z,43.49
2022-08-05T21:14:40.971Z,43.42
2022-08-05T21:17:13.503Z,43.44
2022-08-05T21:19:47.267Z,43.27
2022-08-05T21:22:18.660Z,43.58
2022-08-05T21:24:52.094Z,43.60
2022-08-05T21:27:25.327Z,43.52
2022-08-05T21:29:56.491Z,43.53
2022-08-05T21:32:28.889Z,43.50
2022-08-05T21:35:16.729Z,43.50
2022-08-05T21:37:52.976Z,43.72
2022-08-05T21:40:22.455Z,43.27
2022-08-05T21:42:53.479Z,43.44
2022-08-05T21:45:24.498Z,43.65
2022-08-05T21:48:11.200Z,43.35
2022-08-05T21:50:54.139Z,43.43
2022-08-05T21:53:27.040Z,43.29
2022-08-05T21:56:05.688Z,43.85
2022-08-05T21:58:42.404Z,43.79
2022-08-05T22:01:23.780Z,43.96
2022-08-05T22:03:54.059Z,44.02
2022-08-05T22:06:35.600Z,43.81
2022-08-05T22:09:13.874Z,43.82
2022-08-05T22:11:46.863Z,43.93
2022-08-05T22:14:32.761Z,43.99
2022-08-05T22:17:06.989Z,43.77
2022-08-05T22:20:02.938Z,44.01
2022-08-05T22:22:28.150Z,43.72
2022-08-05T22:25:18.213Z,43.78
2022-08-05T22:28:10.995Z,43.79
2022-08-05T22:30:56.439Z,43.73
2022-08-05T22:33:55.604Z,43.79
2022-08-05T22:36:19.152Z,43.89
2022-08-05T22:38:53.713Z,44.14
2022-08-05T22:42:05.098Z,44.23
2022-08-05T22:44:12.119Z,44.16
2022-08-05T22:46:41.028Z,43.98
2022-08-05T22:49:12.040Z,44.15
2022-08-05T22:52:05.267Z,44.04
2022-08-05T22:54:35.202Z,43.74
2022-08-05T22:57:03.666Z,43.88
2022-08-05T22:59:45.543Z,43.75
2022-08-05T23:02:18.485Z,43.63
2022-08-05T23:04:58.308Z,43.80
2022-08-05T23:07:32.316Z,43.43
2022-08-05T23:10:16.138Z,43.31
2022-08-05T23:12:51.197Z,43.56
2022-08-05T23:15:20.567Z,43.64
2022-08-05T23:18:02.464Z,43.62
2022-08-05T23:20:33.638Z,43.77
2022-08-05T23:23:08.564Z,43.66
2022-08-05T23:25:52.963Z,43.75
2022-08-05T23:28:27.665Z,43.90
2022-08-05T23:31:06.980Z,43.61
2022-08-05T23:34:04.281Z,43.54
2022-08-05T23:36:40.161Z,43.66
2022-08-05T23:39:17.650Z,43.74
2022-08-05T23:42:01.317Z,43.52
2022-08-05T23:44:32.554Z,43.76
2022-08-05T23:47:02.440Z,43.65
2022-08-05T23:49:43.212Z,43.77
2022-08-05T23:52:32.006Z,43.66
2022-08-05T23:55:05.256Z,43.91
2022-08-05T23:57:38.342Z,44.07
